Time;durP1;ratioP1;P1;durP2;ratioP2;P2;SDS_P1;SDS_P2;PMS_P1;PMS_P2;Temp;Humidity;BMP_temperature;BMP_pressure;BME280_temperature;BME280_humidity;BME280_pressure;Samples;Min_cycle;Max_cycle;Signal;HPM_P1;HPM_P2
2022/10/23 00:01:36;;;;;;;;;;;;;;;13.15;92.64;100383.66;85920;1294;82489;-58
2022/10/23 00:03:44;;;;;;;;;;;;;;;13.14;92.49;100387.50;85930;1298;82815;-59
2022/10/23 00:05:51;;;;;;;;;;;;;;;13.15;92.61;100385.05;85883;1298;99402;-59
2022/10/23 00:08:00;;;;;;;;;;;;;;;13.17;92.62;100389.10;85891;1295;87100;-58
2022/10/23 00:10:09;;;;;;;;;;;;;;;13.18;92.60;100386.77;85886;1302;93055;-58
2022/10/23 00:12:16;;;;;;;;;;;;;;;13.20;92.56;100385.62;85849;1295;81315;-58
2022/10/23 00:14:25;;;;;;;;;;;;;;;13.21;92.62;100391.67;85869;1301;82815;-58
2022/10/23 00:16:33;;;;;;;;;;;;;;;13.20;92.56;100393.30;85882;1301;99106;-58
2022/10/23 00:18:41;;;;;;;;;;;;;;;13.21;92.66;100394.98;85892;1294;88453;-58
2022/10/23 00:20:48;;;;;;;;;;;;;;;13.21;92.59;100394.93;85867;1301;95177;-58
2022/10/23 00:22:59;;;;;;;;;;;;;;;13.22;92.57;100396.48;85857;1295;82320;-58
2022/10/23 00:25:11;;;;;;;;;;;;;;;13.24;92.65;100397.58;85865;1300;82952;-59
2022/10/23 00:27:18;;;;;;;;;;;;;;;13.25;92.65;100401.16;85876;1294;97528;-57
2022/10/23 00:29:26;;;;;;;;;;;;;;;13.23;92.75;100400.79;85878;1287;88168;-57
2022/10/23 00:31:35;;;;;;;;;;;;;;;13.25;92.75;100401.66;85877;1301;95246;-57
2022/10/23 00:33:42;;;;;;;;;;;;;;;13.27;92.75;100400.99;85899;1294;80700;-57
2022/10/23 00:35:49;;;;;;;;;;;;;;;13.26;92.61;100402.75;85906;1301;82061;-57
2022/10/23 00:37:56;;;;;;;;;;;;;;;13.23;92.61;100404.55;85945;1301;98760;-58
2022/10/23 00:40:07;;;;;;;;;;;;;;;13.23;92.65;100410.18;85906;1300;88052;-57
2022/10/23 00:42:15;;;;;;;;;;;;;;;13.21;92.75;100410.67;85909;1301;95603;-58
2022/10/23 00:44:57;;;;;;;;;;;;;;;13.20;92.83;100415.09;85885;1294;81072;-59
2022/10/23 00:47:05;;;;;;;;;;;;;;;13.23;93.04;100418.10;85945;1295;82626;-57
2022/10/23 00:49:12;;;;;;;;;;;;;;;13.23;92.96;100417.40;85884;1302;99607;-58
2022/10/23 00:51:20;;;;;;;;;;;;;;;13.24;92.95;100418.39;85914;1301;86892;-57
2022/10/23 00:53:26;;;;;;;;;;;;;;;13.25;93.10;100422.44;85849;1295;94659;-57
2022/10/23 00:55:37;;;;;;;;;;;;;;;13.26;93.05;100423.58;85892;1300;81663;-57
2022/10/23 00:57:46;;;;;;;;;;;;;;;13.25;93.08;100426.00;85883;1290;82788;-58
2022/10/23 00:59:53;;;;;;;;;;;;;;;13.29;93.22;100428.05;85871;1300;99802;-58
2022/10/23 01:02:00;;;;;;;;;;;;;;;13.31;93.24;100430.89;85876;1300;89335;-56
2022/10/23 01:04:10;;;;;;;;;;;;;;;13.32;93.19;100431.60;85873;1302;95342;-58
2022/10/23 01:06:23;;;;;;;;;;;;;;;13.35;93.15;100432.81;85820;1300;81920;-58
2022/10/23 01:08:33;;;;;;;;;;;;;;;13.36;93.15;100433.88;85872;1295;82237;-58
2022/10/23 01:10:44;;;;;;;;;;;;;;;13.36;93.06;100435.70;85839;1294;100110;-57
2022/10/23 01:12:54;;;;;;;;;;;;;;;13.34;93.12;100438.70;85877;1301;86156;-58
2022/10/23 01:15:06;;;;;;;;;;;;;;;13.35;93.15;100445.27;85904;1300;94676;-58
2022/10/23 01:17:18;;;;;;;;;;;;;;;13.34;93.17;100445.41;85900;1290;81692;-57
2022/10/23 01:19:38;;;;;;;;;;;;;;;13.31;93.26;100445.91;85877;1302;82842;-58
2022/10/23 01:21:54;;;;;;;;;;;;;;;13.34;93.23;100451.02;85912;1301;98145;-58
2022/10/23 01:24:12;;;;;;;;;;;;;;;13.38;93.29;100450.90;85898;1300;87419;-58
2022/10/23 01:26:40;;;;;;;;;;;;;;;13.38;93.12;100452.69;85927;1300;93569;-59
2022/10/23 01:28:50;;;;;;;;;;;;;;;13.40;93.14;100453.49;85906;1294;82044;-58
2022/10/23 01:30:59;;;;;;;;;;;;;;;13.37;93.23;100454.86;85938;1300;80406;-59
2022/10/23 01:33:10;;;;;;;;;;;;;;;13.36;93.37;100459.55;85898;1300;98087;-58
2022/10/23 01:35:20;;;;;;;;;;;;;;;13.35;93.37;100457.45;85928;1292;88092;-58
2022/10/23 01:37:31;;;;;;;;;;;;;;;13.35;93.35;100457.91;85910;1294;95478;-58
2022/10/23 01:39:42;;;;;;;;;;;;;;;13.38;93.25;100455.29;85872;1301;81433;-58
2022/10/23 01:41:52;;;;;;;;;;;;;;;13.39;93.31;100457.71;85873;1302;80553;-58
2022/10/23 01:44:04;;;;;;;;;;;;;;;13.40;93.32;100453.63;85888;1294;100002;-59
2022/10/23 01:46:13;;;;;;;;;;;;;;;13.40;93.23;100453.13;85882;1296;89053;-59
2022/10/23 01:48:24;;;;;;;;;;;;;;;13.42;93.30;100451.91;85872;1294;95819;-59
2022/10/23 01:50:32;;;;;;;;;;;;;;;13.42;93.33;100448.31;85852;1295;81002;-59
2022/10/23 01:52:39;;;;;;;;;;;;;;;13.43;93.33;100451.98;85886;1294;82723;-59
2022/10/23 01:54:48;;;;;;;;;;;;;;;13.40;93.28;100453.36;85868;1295;98766;-58
2022/10/23 01:56:55;;;;;;;;;;;;;;;13.40;93.25;100451.09;85897;1294;86658;-58
2022/10/23 01:59:06;;;;;;;;;;;;;;;13.38;93.27;100455.82;85858;1294;94854;-59
2022/10/23 02:01:15;;;;;;;;;;;;;;;13.39;93.35;100459.50;85873;1300;80971;-58
2022/10/23 02:03:24;;;;;;;;;;;;;;;13.42;93.42;100456.80;85910;1294;82372;-58
2022/10/23 02:05:32;;;;;;;;;;;;;;;13.41;93.31;100459.59;85905;1302;99066;-57
2022/10/23 02:07:39;;;;;;;;;;;;;;;13.42;93.29;100458.27;85908;1301;88418;-57
2022/10/23 02:09:48;;;;;;;;;;;;;;;13.40;93.23;100456.89;85886;1294;95478;-58
2022/10/23 02:11:59;;;;;;;;;;;;;;;13.37;93.26;100461.46;85927;1300;82405;-59
2022/10/23 02:14:14;;;;;;;;;;;;;;;13.36;93.30;100463.80;85941;1295;81551;-59
2022/10/23 02:16:26;;;;;;;;;;;;;;;13.35;93.42;100465.63;85936;1300;98385;-56
2022/10/23 02:18:40;;;;;;;;;;;;;;;13.37;93.43;100465.80;85884;1295;89303;-57
2022/10/23 02:20:53;;;;;;;;;;;;;;;13.39;93.21;100469.73;85916;1294;95399;-57
2022/10/23 02:23:08;;;;;;;;;;;;;;;13.39;93.34;100470.61;85903;1296;82344;-59
2022/10/23 02:25:18;;;;;;;;;;;;;;;13.41;93.31;100472.45;85874;1294;82934;-60
2022/10/23 02:27:29;;;;;;;;;;;;;;;13.42;93.32;100478.09;85898;1294;96721;-57
2022/10/23 02:29:40;;;;;;;;;;;;;;;13.42;93.36;100474.13;85867;1302;88944;-58
2022/10/23 02:31:47;;;;;;;;;;;;;;;13.43;93.32;100478.34;85877;1300;94639;-58
2022/10/23 02:33:54;;;;;;;;;;;;;;;13.43;93.29;100477.13;85843;1300;82040;-57
2022/10/23 02:36:04;;;;;;;;;;;;;;;13.42;93.23;100482.17;85849;1301;80845;-58
2022/10/23 02:38:29;;;;;;;;;;;;;;;13.39;93.15;100483.27;85847;1296;100479;-58
2022/10/23 02:40:41;;;;;;;;;;;;;;;13.36;93.20;100479.88;85830;1294;88039;-57
2022/10/23 02:42:52;;;;;;;;;;;;;;;13.36;93.19;100480.98;85870;1301;95181;-57
2022/10/23 02:45:06;;;;;;;;;;;;;;;13.38;93.16;100481.74;85794;1295;80950;-57
2022/10/23 02:47:30;;;;;;;;;;;;;;;13.37;93.16;100487.71;85846;1294;82277;-57
2022/10/23 02:49:44;;;;;;;;;;;;;;;13.35;93.23;100487.97;85886;1300;99132;-57
2022/10/23 02:52:01;;;;;;;;;;;;;;;13.38;93.28;100492.10;85862;1301;87860;-57
2022/10/23 02:54:14;;;;;;;;;;;;;;;13.37;93.20;100490.42;85856;1300;95589;-57
2022/10/23 02:56:28;;;;;;;;;;;;;;;13.38;93.26;100496.61;85865;1301;80025;-57
2022/10/23 02:58:43;;;;;;;;;;;;;;;13.38;93.25;100497.16;85963;1294;81956;-57
2022/10/23 03:00:53;;;;;;;;;;;;;;;13.39;93.19;100492.79;85931;1294;99937;-57
2022/10/23 03:03:02;;;;;;;;;;;;;;;13.40;93.15;100494.66;85930;1295;87453;-57
2022/10/23 03:05:14;;;;;;;;;;;;;;;13.38;93.06;100492.06;85909;1301;93866;-57
2022/10/23 03:07:22;;;;;;;;;;;;;;;13.37;93.01;100488.63;85917;1300;82654;-58
2022/10/23 03:09:31;;;;;;;;;;;;;;;13.32;92.99;100493.30;85892;1300;81441;-60
2022/10/23 03:11:37;;;;;;;;;;;;;;;13.28;92.99;100488.15;85891;1295;99220;-57
2022/10/23 03:13:44;;;;;;;;;;;;;;;13.27;93.01;100491.39;85909;1294;87827;-58
2022/10/23 03:15:51;;;;;;;;;;;;;;;13.25;92.99;100491.52;85868;1301;95016;-57
2022/10/23 03:17:58;;;;;;;;;;;;;;;13.26;93.06;100489.69;85854;1301;79469;-58
2022/10/23 03:20:06;;;;;;;;;;;;;;;13.27;92.95;100489.94;85867;1300;82512;-59
2022/10/23 03:22:14;;;;;;;;;;;;;;;13.23;93.08;100488.71;85860;1301;98345;-59
2022/10/23 03:24:21;;;;;;;;;;;;;;;13.23;93.02;100489.19;85856;1300;87589;-58
2022/10/23 03:26:28;;;;;;;;;;;;;;;13.22;93.04;100487.59;85873;1300;95291;-57
2022/10/23 03:28:36;;;;;;;;;;;;;;;13.22;93.04;100485.74;85912;1301;81548;-56
2022/10/23 03:30:43;;;;;;;;;;;;;;;13.20;93.02;100483.66;85882;1301;82257;-57
2022/10/23 03:32:49;;;;;;;;;;;;;;;13.19;93.05;100485.79;85859;1294;98662;-57
2022/10/23 03:34:59;;;;;;;;;;;;;;;13.18;93.09;100482.54;85855;1290;88808;-59
2022/10/23 03:37:06;;;;;;;;;;;;;;;13.18;93.16;100483.91;85840;1301;95322;-57
2022/10/23 03:39:16;;;;;;;;;;;;;;;13.19;93.29;100489.83;85885;1301;82527;-56
2022/10/23 03:41:25;;;;;;;;;;;;;;;13.16;93.35;100492.17;85893;1295;80901;-57
2022/10/23 03:43:32;;;;;;;;;;;;;;;13.19;93.35;100495.35;85881;1294;99386;-57
2022/10/23 03:45:39;;;;;;;;;;;;;;;13.24;93.38;100503.26;85904;1300;88416;-58
2022/10/23 03:47:47;;;;;;;;;;;;;;;13.25;93.37;100502.75;85910;1295;95488;-59
2022/10/23 03:49:54;;;;;;;;;;;;;;;13.22;93.36;100503.79;85910;1301;81985;-59
2022/10/23 03:52:01;;;;;;;;;;;;;;;13.24;93.40;100502.16;85892;1300;81787;-56
2022/10/23 03:54:09;;;;;;;;;;;;;;;13.25;93.37;100503.55;85902;1300;99185;-58
2022/10/23 03:56:16;;;;;;;;;;;;;;;13.25;93.37;100506.67;85879;1292;87870;-59
2022/10/23 03:58:23;;;;;;;;;;;;;;;13.21;93.50;100510.46;85863;1301;93759;-58
2022/10/23 04:00:30;;;;;;;;;;;;;;;13.21;93.45;100511.21;85894;1294;80390;-59
2022/10/23 04:02:37;;;;;;;;;;;;;;;13.25;93.53;100513.56;85877;1301;81571;-59
2022/10/23 04:04:44;;;;;;;;;;;;;;;13.25;93.47;100518.41;85867;1295;97579;-59
2022/10/23 04:06:51;;;;;;;;;;;;;;;13.27;93.45;100521.41;85870;1294;88400;-58
2022/10/23 04:08:59;;;;;;;;;;;;;;;13.26;93.42;100526.21;85849;1294;97595;-58
2022/10/23 04:11:08;;;;;;;;;;;;;;;13.26;93.51;100529.84;85833;1301;80999;-59
2022/10/23 04:13:15;;;;;;;;;;;;;;;13.25;93.58;100533.10;85865;1294;80514;-57
2022/10/23 04:15:22;;;;;;;;;;;;;;;13.28;93.53;100535.61;85868;1300;99361;-57
2022/10/23 04:17:32;;;;;;;;;;;;;;;13.28;93.62;100537.88;85896;1294;89210;-58
2022/10/23 04:19:38;;;;;;;;;;;;;;;13.30;93.48;100539.21;85882;1295;95130;-58
2022/10/23 04:21:45;;;;;;;;;;;;;;;13.29;93.51;100537.80;85876;1302;81765;-58
2022/10/23 04:23:52;;;;;;;;;;;;;;;13.29;93.39;100532.36;85893;1298;82774;-58
2022/10/23 04:26:00;;;;;;;;;;;;;;;13.29;93.30;100532.95;85883;1293;98164;-57
2022/10/23 04:28:09;;;;;;;;;;;;;;;13.23;93.14;100539.14;85868;1294;88684;-58
2022/10/23 04:30:18;;;;;;;;;;;;;;;13.22;93.11;100539.80;85897;1294;94794;-59
2022/10/23 04:32:27;;;;;;;;;;;;;;;13.23;93.25;100543.08;85896;1295;80529;-57
2022/10/23 04:34:36;;;;;;;;;;;;;;;13.22;93.15;100544.48;85854;1294;82275;-57
2022/10/23 04:36:44;;;;;;;;;;;;;;;13.21;93.10;100544.05;85897;1301;98606;-59
2022/10/23 04:38:52;;;;;;;;;;;;;;;13.20;92.95;100545.25;85926;1294;87907;-59
2022/10/23 04:41:00;;;;;;;;;;;;;;;13.22;93.01;100542.84;85868;1294;95638;-58
2022/10/23 04:43:07;;;;;;;;;;;;;;;13.22;93.12;100548.28;85898;1294;80919;-58
2022/10/23 04:45:14;;;;;;;;;;;;;;;13.21;93.08;100548.61;85882;1301;82953;-58
2022/10/23 04:47:21;;;;;;;;;;;;;;;13.19;93.14;100546.88;85870;1293;96538;-57
2022/10/23 04:49:31;;;;;;;;;;;;;;;13.20;93.06;100549.36;85562;1296;367903;-57
2022/10/23 04:51:38;;;;;;;;;;;;;;;13.20;93.09;100553.27;85831;1294;94288;-58
2022/10/23 04:53:45;;;;;;;;;;;;;;;13.20;93.09;100558.03;85853;1301;81511;-57
2022/10/23 04:55:54;;;;;;;;;;;;;;;13.22;93.08;100557.20;85867;1301;82793;-58
2022/10/23 04:58:01;;;;;;;;;;;;;;;13.20;92.96;100556.55;85863;1294;99107;-59
2022/10/23 05:00:13;;;;;;;;;;;;;;;13.23;93.03;100556.04;85844;1298;88351;-59
2022/10/23 05:02:23;;;;;;;;;;;;;;;13.23;93.03;100556.62;85897;1294;93896;-57
2022/10/23 05:04:30;;;;;;;;;;;;;;;13.22;92.98;100555.23;85831;1293;81013;-57
2022/10/23 05:06:37;;;;;;;;;;;;;;;13.20;92.97;100556.19;85898;1294;82307;-58
2022/10/23 05:08:44;;;;;;;;;;;;;;;13.21;92.98;100557.52;85865;1294;99534;-58
2022/10/23 05:10:51;;;;;;;;;;;;;;;13.15;92.94;100554.48;85883;1294;86404;-56
2022/10/23 05:12:58;;;;;;;;;;;;;;;13.09;92.91;100554.77;85885;1294;93266;-57
2022/10/23 05:15:07;;;;;;;;;;;;;;;13.08;92.93;100556.68;85901;1295;79349;-57
2022/10/23 05:17:16;;;;;;;;;;;;;;;13.07;92.90;100553.74;85921;1300;82126;-57
2022/10/23 05:19:27;;;;;;;;;;;;;;;13.03;92.86;100556.55;85926;1279;100429;-57
2022/10/23 05:21:35;;;;;;;;;;;;;;;13.01;92.82;100561.59;85922;1301;87108;-58
2022/10/23 05:23:44;;;;;;;;;;;;;;;12.99;92.94;100564.48;85880;1294;95608;-57
2022/10/23 05:25:51;;;;;;;;;;;;;;;12.98;92.95;100569.95;85885;1294;80467;-57
2022/10/23 05:27:58;;;;;;;;;;;;;;;12.96;92.89;100569.82;85899;1294;80018;-58
2022/10/23 05:30:07;;;;;;;;;;;;;;;12.97;92.91;100568.98;85851;1302;98660;-58
2022/10/23 05:32:16;;;;;;;;;;;;;;;12.98;92.88;100573.76;85922;1295;85628;-59
2022/10/23 05:34:24;;;;;;;;;;;;;;;12.97;92.86;100577.42;85896;1295;95261;-59
2022/10/23 05:36:32;;;;;;;;;;;;;;;12.96;92.93;100578.45;85847;1300;82296;-58
2022/10/23 05:38:39;;;;;;;;;;;;;;;12.94;93.05;100584.54;85889;1294;81660;-57
2022/10/23 05:40:46;;;;;;;;;;;;;;;12.93;93.07;100586.87;85838;1294;98561;-57
2022/10/23 05:42:53;;;;;;;;;;;;;;;12.95;93.04;100587.13;85876;1294;87945;-59
2022/10/23 05:45:00;;;;;;;;;;;;;;;12.95;93.07;100590.39;85866;1294;94062;-59
2022/10/23 05:47:07;;;;;;;;;;;;;;;12.97;92.96;100587.26;85876;1294;80445;-59
2022/10/23 05:49:14;;;;;;;;;;;;;;;12.99;92.89;100592.91;85857;1294;82913;-59
2022/10/23 05:51:22;;;;;;;;;;;;;;;13.01;92.92;100593.92;85880;1301;99044;-58
2022/10/23 05:53:29;;;;;;;;;;;;;;;13.01;92.88;100593.13;85880;1288;88935;-58
2022/10/23 05:55:36;;;;;;;;;;;;;;;13.02;92.84;100593.83;85890;1294;94714;-58
2022/10/23 05:57:44;;;;;;;;;;;;;;;13.00;92.71;100595.26;85885;1300;80701;-58
2022/10/23 05:59:53;;;;;;;;;;;;;;;12.97;92.87;100591.81;85903;1293;82688;-58
2022/10/23 06:02:00;;;;;;;;;;;;;;;12.98;92.91;100591.90;85910;1294;99710;-58
2022/10/23 06:04:08;;;;;;;;;;;;;;;13.00;92.91;100589.17;85892;1294;87946;-58
2022/10/23 06:06:15;;;;;;;;;;;;;;;13.02;92.72;100588.66;85921;1294;95160;-58
2022/10/23 06:08:23;;;;;;;;;;;;;;;13.01;92.66;100587.59;85909;1295;82496;-58
2022/10/23 06:10:31;;;;;;;;;;;;;;;13.06;92.61;100587.66;85883;1294;82653;-57
2022/10/23 06:12:38;;;;;;;;;;;;;;;13.10;92.67;100591.55;85915;1294;98713;-56
2022/10/23 06:14:46;;;;;;;;;;;;;;;13.14;92.57;100595.52;85893;1301;89239;-57
2022/10/23 06:16:54;;;;;;;;;;;;;;;13.17;92.58;100593.61;85881;1301;92757;-57
2022/10/23 06:19:01;;;;;;;;;;;;;;;13.23;92.53;100598.15;85797;1295;84445;-58
2022/10/23 06:21:09;;;;;;;;;;;;;;;13.17;92.53;100603.39;85874;1301;82233;-57
2022/10/23 06:23:16;;;;;;;;;;;;;;;13.21;92.53;100608.25;85846;1301;98863;-56
2022/10/23 06:25:24;;;;;;;;;;;;;;;13.26;92.64;100610.94;85836;1300;89283;-57
2022/10/23 06:27:31;;;;;;;;;;;;;;;13.32;92.50;100618.77;85824;1301;94399;-57
2022/10/23 06:29:38;;;;;;;;;;;;;;;13.34;92.37;100616.16;85849;1278;81155;-58
2022/10/23 06:31:46;;;;;;;;;;;;;;;13.38;92.26;100614.67;85879;1302;83071;-58
2022/10/23 06:33:53;;;;;;;;;;;;;;;13.39;92.16;100612.26;85853;1301;99044;-59
2022/10/23 06:36:01;;;;;;;;;;;;;;;13.42;91.93;100610.72;85871;1286;87057;-59
2022/10/23 06:38:09;;;;;;;;;;;;;;;13.46;92.01;100613.16;85902;1294;95408;-58
2022/10/23 06:40:16;;;;;;;;;;;;;;;13.50;91.92;100615.10;85895;1294;81985;-59
2022/10/23 06:42:24;;;;;;;;;;;;;;;13.60;91.91;100617.77;85925;1301;83693;-57
2022/10/23 06:44:31;;;;;;;;;;;;;;;13.71;92.11;100621.64;85895;1301;99911;-57
2022/10/23 06:46:38;;;;;;;;;;;;;;;13.90;92.17;100626.61;85929;1301;88673;-57
2022/10/23 06:48:46;;;;;;;;;;;;;;;14.00;92.24;100628.45;85869;1294;93967;-57
2022/10/23 06:50:54;;;;;;;;;;;;;;;14.02;92.02;100633.38;85905;1300;81828;-58
2022/10/23 06:53:03;;;;;;;;;;;;;;;14.02;91.82;100634.38;85853;1301;81954;-58
2022/10/23 06:55:11;;;;;;;;;;;;;;;13.99;91.71;100639.98;85831;1301;98880;-57
2022/10/23 06:57:18;;;;;;;;;;;;;;;13.99;91.59;100644.70;85898;1294;88491;-56
2022/10/23 06:59:25;;;;;;;;;;;;;;;13.97;91.42;100643.20;85890;1291;93526;-57
2022/10/23 07:01:32;;;;;;;;;;;;;;;13.91;91.36;100645.77;85876;1300;82066;-58
2022/10/23 07:03:43;;;;;;;;;;;;;;;13.84;91.25;100641.35;85822;1289;82227;-58
2022/10/23 07:05:50;;;;;;;;;;;;;;;13.78;91.12;100640.16;85854;1301;97764;-58
2022/10/23 07:08:00;;;;;;;;;;;;;;;13.75;91.32;100639.79;85846;1294;87751;-58
2022/10/23 07:10:10;;;;;;;;;;;;;;;13.76;91.33;100638.23;85839;1287;95531;-59
2022/10/23 07:12:17;;;;;;;;;;;;;;;13.79;91.21;100634.80;85843;1295;81987;-58
2022/10/23 07:14:23;;;;;;;;;;;;;;;13.80;91.31;100632.16;85870;1295;82885;-58
2022/10/23 07:16:32;;;;;;;;;;;;;;;13.83;91.32;100635.59;85878;1294;99286;-57
2022/10/23 07:18:39;;;;;;;;;;;;;;;13.81;91.32;100637.67;85872;1294;88456;-56
2022/10/23 07:20:48;;;;;;;;;;;;;;;13.85;91.25;100637.77;85853;1294;93919;-60
2022/10/23 07:22:56;;;;;;;;;;;;;;;13.90;91.12;100636.49;85833;1294;81170;-58
2022/10/23 07:25:06;;;;;;;;;;;;;;;13.93;91.06;100637.92;85886;1294;81517;-58
2022/10/23 07:27:13;;;;;;;;;;;;;;;13.96;91.22;100638.21;85898;1301;98388;-59
2022/10/23 07:29:20;;;;;;;;;;;;;;;13.95;91.16;100639.76;85868;1301;86419;-59
2022/10/23 07:31:27;;;;;;;;;;;;;;;13.96;91.03;100643.10;85879;1301;95569;-57
2022/10/23 07:33:35;;;;;;;;;;;;;;;13.99;91.01;100641.15;85866;1294;81249;-58
2022/10/23 07:35:46;;;;;;;;;;;;;;;14.00;90.96;100644.63;85887;1294;82502;-59
2022/10/23 07:37:53;;;;;;;;;;;;;;;14.01;91.00;100639.31;85930;1294;99397;-57
2022/10/23 07:40:00;;;;;;;;;;;;;;;14.03;91.05;100634.55;85915;1294;88797;-57
2022/10/23 07:42:10;;;;;;;;;;;;;;;14.07;91.02;100634.14;85940;1295;94924;-60
2022/10/23 07:44:20;;;;;;;;;;;;;;;14.16;90.84;100634.45;85922;1301;81331;-60
2022/10/23 07:46:27;;;;;;;;;;;;;;;14.21;91.06;100630.23;85889;1294;83129;-58
2022/10/23 07:48:35;;;;;;;;;;;;;;;14.34;91.30;100631.20;85834;1294;98009;-59
2022/10/23 07:50:44;;;;;;;;;;;;;;;14.69;91.26;100629.91;85868;1294;88473;-59
2022/10/23 07:52:55;;;;;;;;;;;;;;;14.95;91.25;100628.73;85864;1285;95505;-60
2022/10/23 07:55:07;;;;;;;;;;;;;;;15.02;90.77;100625.75;85889;1294;79597;-57
2022/10/23 07:57:14;;;;;;;;;;;;;;;15.07;90.63;100625.46;85907;1295;81839;-58
2022/10/23 07:59:22;;;;;;;;;;;;;;;15.05;90.54;100622.91;85854;1300;98220;-59
2022/10/23 08:01:33;;;;;;;;;;;;;;;15.08;90.24;100621.39;85893;1294;89543;-58
2022/10/23 08:03:43;;;;;;;;;;;;;;;15.04;90.36;100624.46;85854;1294;92655;-57
2022/10/23 08:05:53;;;;;;;;;;;;;;;15.02;89.98;100622.66;85859;1294;80397;-57
2022/10/23 08:08:04;;;;;;;;;;;;;;;15.03;90.09;100624.29;85885;1301;81586;-57
2022/10/23 08:10:11;;;;;;;;;;;;;;;15.05;90.19;100622.20;85887;1293;97259;-57
2022/10/23 08:12:19;;;;;;;;;;;;;;;15.08;90.09;100620.71;85908;1294;88692;-57
2022/10/23 08:14:27;;;;;;;;;;;;;;;15.14;89.79;100621.26;85869;1294;93918;-57
2022/10/23 08:16:36;;;;;;;;;;;;;;;15.14;89.81;100621.05;85876;1300;79369;-57
2022/10/23 08:18:44;;;;;;;;;;;;;;;15.24;90.06;100622.02;85907;1294;82240;-58
2022/10/23 08:20:51;;;;;;;;;;;;;;;15.27;89.95;100623.60;85868;1290;97397;-58
2022/10/23 08:22:59;;;;;;;;;;;;;;;15.28;89.69;100614.67;85928;1301;86244;-59
2022/10/23 08:25:08;;;;;;;;;;;;;;;15.26;89.79;100617.31;85899;1297;94530;-60
2022/10/23 08:27:15;;;;;;;;;;;;;;;15.22;89.73;100625.16;85944;1294;78908;-58
2022/10/23 08:29:22;;;;;;;;;;;;;;;15.15;89.45;100631.84;85880;1294;82125;-58
2022/10/23 08:31:29;;;;;;;;;;;;;;;15.05;89.36;100632.80;85895;1294;98597;-68
2022/10/23 08:33:36;;;;;;;;;;;;;;;14.95;89.28;100635.73;85873;1294;89070;-58
2022/10/23 08:35:44;;;;;;;;;;;;;;;14.85;89.63;100635.97;85855;1293;95713;-60
2022/10/23 08:37:50;;;;;;;;;;;;;;;14.85;89.56;100639.89;85841;1300;81345;-58
2022/10/23 08:39:57;;;;;;;;;;;;;;;14.80;89.65;100642.69;85870;1294;82688;-58
2022/10/23 08:42:05;;;;;;;;;;;;;;;14.79;89.69;100646.21;85885;1301;99739;-58
2022/10/23 08:44:19;;;;;;;;;;;;;;;14.82;89.81;100644.08;85880;1292;88149;-57
2022/10/23 08:46:30;;;;;;;;;;;;;;;14.81;89.86;100646.38;85879;1293;94223;-57
2022/10/23 08:48:42;;;;;;;;;;;;;;;14.84;90.02;100650.40;85878;1294;81707;-57
2022/10/23 08:50:51;;;;;;;;;;;;;;;14.89;90.12;100647.55;85865;1288;81135;-57
2022/10/23 08:53:01;;;;;;;;;;;;;;;15.00;90.16;100642.21;85865;1294;99973;-57
2022/10/23 08:55:16;;;;;;;;;;;;;;;15.08;90.30;100642.20;85906;1294;89346;-66
2022/10/23 08:57:32;;;;;;;;;;;;;;;15.13;90.20;100640.77;85923;1301;94436;-58
2022/10/23 08:59:44;;;;;;;;;;;;;;;15.21;90.08;100638.06;85909;1294;81853;-58
2022/10/23 09:01:55;;;;;;;;;;;;;;;15.25;90.18;100640.69;85878;1301;81981;-58
2022/10/23 09:04:06;;;;;;;;;;;;;;;15.28;89.98;100638.59;85977;1294;99245;-58
2022/10/23 09:06:21;;;;;;;;;;;;;;;15.32;90.12;100638.23;85944;1294;88578;-59
2022/10/23 09:08:39;;;;;;;;;;;;;;;15.40;90.27;100637.09;85924;1294;94307;-59
2022/10/23 09:11:11;;;;;;;;;;;;;;;15.55;90.26;100634.13;85919;1301;79579;-59
2022/10/23 09:13:34;;;;;;;;;;;;;;;15.69;90.20;100632.14;85868;1294;81422;-59
2022/10/23 09:15:47;;;;;;;;;;;;;;;15.78;90.14;100632.05;85857;1301;100329;-59
2022/10/23 09:18:12;;;;;;;;;;;;;;;15.86;89.99;100631.35;85845;1294;88147;-59
2022/10/23 09:20:24;;;;;;;;;;;;;;;15.94;89.95;100632.71;85846;1294;93065;-59
2022/10/23 09:22:32;;;;;;;;;;;;;;;16.02;89.67;100627.46;85869;1294;82939;-58
2022/10/23 09:24:43;;;;;;;;;;;;;;;16.02;89.36;100633.55;85853;1301;83080;-58
2022/10/23 09:26:52;;;;;;;;;;;;;;;16.08;89.46;100636.31;85851;1294;100121;-58
2022/10/23 09:29:17;;;;;;;;;;;;;;;16.16;89.48;100637.27;85838;1294;85747;-57
2022/10/23 09:31:25;;;;;;;;;;;;;;;16.28;89.25;100643.35;85870;1294;94253;-60
2022/10/23 09:33:33;;;;;;;;;;;;;;;16.18;88.66;100648.45;85865;1294;81686;-59
2022/10/23 09:35:51;;;;;;;;;;;;;;;16.14;88.76;100648.91;85895;1294;81308;-59
2022/10/23 09:37:59;;;;;;;;;;;;;;;16.06;88.78;100644.91;85936;1294;97559;-58
2022/10/23 09:40:20;;;;;;;;;;;;;;;15.99;88.76;100642.74;85920;1301;86922;-57
2022/10/23 09:42:30;;;;;;;;;;;;;;;16.02;88.22;100642.64;85891;1301;93454;-58
2022/10/23 09:44:47;;;;;;;;;;;;;;;16.00;88.13;100641.07;85941;1295;78803;-58
2022/10/23 09:46:59;;;;;;;;;;;;;;;16.04;88.18;100643.42;85960;1295;81243;-58
2022/10/23 09:49:14;;;;;;;;;;;;;;;16.06;88.23;100637.42;85928;1295;99060;-58
2022/10/23 09:51:23;;;;;;;;;;;;;;;16.16;88.24;100640.46;85936;1294;87842;-58
2022/10/23 09:53:37;;;;;;;;;;;;;;;16.22;88.09;100640.84;85875;1294;95327;-58
2022/10/23 09:55:51;;;;;;;;;;;;;;;16.21;88.12;100644.36;85886;1294;81936;-59
2022/10/23 09:57:59;;;;;;;;;;;;;;;16.20;87.98;100640.98;85860;1294;80253;-60
2022/10/23 10:00:16;;;;;;;;;;;;;;;16.18;87.86;100638.09;85850;1294;99908;-60
2022/10/23 10:02:29;;;;;;;;;;;;;;;16.15;87.67;100640.04;85899;1294;88458;-59
2022/10/23 10:04:39;;;;;;;;;;;;;;;16.12;87.89;100636.38;85854;1301;95248;-59
2022/10/23 10:06:56;;;;;;;;;;;;;;;16.16;87.81;100630.40;85851;1294;80251;-58
2022/10/23 10:09:07;;;;;;;;;;;;;;;16.16;87.93;100631.69;85860;1294;82417;-58
2022/10/23 10:11:20;;;;;;;;;;;;;;;16.18;87.72;100635.80;85891;1294;98267;-58
2022/10/23 10:13:37;;;;;;;;;;;;;;;16.15;87.60;100639.67;85867;1294;88516;-58
2022/10/23 10:15:47;;;;;;;;;;;;;;;16.12;87.74;100640.54;85869;1294;94866;-57
2022/10/23 10:18:10;;;;;;;;;;;;;;;16.09;87.69;100636.45;85890;1301;82403;-59
2022/10/23 10:20:35;;;;;;;;;;;;;;;16.06;87.80;100635.03;85882;1301;80337;-58
2022/10/23 10:22:50;;;;;;;;;;;;;;;16.07;87.63;100629.83;85914;1301;99545;-57
2022/10/23 10:25:02;;;;;;;;;;;;;;;16.10;87.82;100631.15;85898;1294;87020;-58
2022/10/23 10:27:21;;;;;;;;;;;;;;;16.13;87.81;100634.31;85892;1294;95206;-58
2022/10/23 10:29:40;;;;;;;;;;;;;;;16.15;87.83;100638.45;85899;1294;81247;-59
2022/10/23 10:31:56;;;;;;;;;;;;;;;16.16;87.57;100639.83;85951;1297;81604;-59
2022/10/23 10:34:12;;;;;;;;;;;;;;;16.17;87.68;100638.94;85880;1294;99144;-59
2022/10/23 10:36:35;;;;;;;;;;;;;;;16.17;87.67;100639.84;85868;1301;86564;-58
2022/10/23 10:38:51;;;;;;;;;;;;;;;16.15;87.64;100639.23;85869;1301;95201;-57
2022/10/23 10:41:22;;;;;;;;;;;;;;;16.12;87.68;100637.98;85880;1301;80401;-60
2022/10/23 10:43:46;;;;;;;;;;;;;;;16.07;87.51;100636.29;85892;1294;82528;-59
2022/10/23 10:46:01;;;;;;;;;;;;;;;16.08;87.61;100629.44;85934;1301;97936;-58
2022/10/23 10:48:28;;;;;;;;;;;;;;;16.08;87.56;100628.26;85922;1301;87471;-60
2022/10/23 10:50:43;;;;;;;;;;;;;;;16.07;87.50;100626.14;85845;1300;93618;-60
2022/10/23 10:52:58;;;;;;;;;;;;;;;16.10;87.48;100621.84;85857;1294;82249;-58
2022/10/23 10:55:15;;;;;;;;;;;;;;;16.10;87.51;100618.77;85861;1294;82950;-58
2022/10/23 10:57:31;;;;;;;;;;;;;;;16.12;87.56;100619.90;85896;1288;99536;-57
2022/10/23 10:59:42;;;;;;;;;;;;;;;16.20;87.45;100624.40;85883;1294;88203;-57
2022/10/23 11:01:56;;;;;;;;;;;;;;;16.26;87.41;100620.38;85862;1294;96012;-58
2022/10/23 11:04:11;;;;;;;;;;;;;;;16.28;87.35;100620.87;85875;1300;82000;-60
2022/10/23 11:06:23;;;;;;;;;;;;;;;16.37;87.14;100619.50;85839;1294;80609;-59
2022/10/23 11:08:35;;;;;;;;;;;;;;;16.40;86.88;100620.10;85821;1294;97140;-59